Time;durP1;ratioP1;P1;durP2;ratioP2;P2;SDS_P1;SDS_P2;PMS_P1;PMS_P2;Temp;Humidity;BMP_temperature;BMP_pressure;BME280_temperature;BME280_humidity;BME280_pressure;Samples;Min_cycle;Max_cycle;Signal;HPM_P1;HPM_P2
2022/04/11 00:01:51;;;;;;;;;;;;;;;;;;5070720;28;19974;-58
2022/04/11 00:04:18;;;;;;;;;;;;;;;;;;5071268;28;20547;-60
2022/04/11 00:06:44;;;;;;;;;;;;;;;;;;5070786;28;20046;-64
2022/04/11 00:09:10;;;;;;;;;;;;;;;;;;5070686;28;19987;-65
2022/04/11 00:11:36;;;;;;;;;;;;;;;;;;5070109;28;19971;-63
2022/04/11 00:14:04;;;;;;;;;;;;;;;;;;5069327;28;19968;-63
2022/04/11 00:16:30;;;;;;;;;;;;;;;;;;5070288;28;19968;-63
2022/04/11 00:18:56;;;;;;;;;;;;;;;;;;5074699;28;19973;-63
2022/04/11 00:21:22;;;;;;;;;;;;;;;;;;5070694;28;20057;-63
2022/04/11 00:23:48;;;;;;;;;;;;;;;;;;5070909;28;20381;-63
2022/04/11 00:26:15;;;;;;;;;;;;;;;;;;5070252;28;20465;-63
2022/04/11 00:28:41;;;;;;;;;;;;;;;;;;5070344;28;19971;-65
2022/04/11 00:31:07;;;;;;;;;;;;;;;;;;5069036;28;19971;-65
2022/04/11 00:33:33;;;;;;;;;;;;;;;;;;5073370;28;20139;-64
2022/04/11 00:35:59;;;;;;;;;;;;;;;;;;5068161;28;19996;-65
2022/04/11 00:38:25;;;;;;;;;;;;;;;;;;5070726;28;19993;-64
2022/04/11 00:40:51;;;;;;;;;;;;;;;;;;5069981;28;19968;-64
2022/04/11 00:43:17;;;;;;;;;;;;;;;;;;5069749;28;19977;-64
2022/04/11 00:45:44;;;;;;;;;;;;;;;;;;5070015;28;19993;-64
2022/04/11 00:48:10;;;;;;;;;;;;;;;;;;5070013;28;19971;-65
2022/04/11 00:50:36;;;;;;;;;;;;;;;;;;5069195;28;20061;-64
2022/04/11 00:53:02;;;;;;;;;;;;;;;;;;5069541;28;19981;-65
2022/04/11 00:55:29;;;;;;;;;;;;;;;;;;5069779;28;19994;-64
2022/04/11 00:57:55;;;;;;;;;;;;;;;;;;5070356;28;19972;-65
2022/04/11 01:00:21;;;;;;;;;;;;;;;;;;5069020;28;20505;-64
2022/04/11 01:02:47;;;;;;;;;;;;;;;;;;5070022;28;20497;-63
2022/04/11 01:05:14;;;;;;;;;;;;;;;;;;5069330;28;19984;-62
2022/04/11 01:07:40;;;;;;;;;;;;;;;;;;5069613;28;20435;-63
2022/04/11 01:10:06;;;;;;;;;;;;;;;;;;5069044;28;19992;-64
2022/04/11 01:12:32;;;;;;;;;;;;;;;;;;5069339;28;20435;-64
2022/04/11 01:14:58;;;;;;;;;;;;;;;;;;5068873;28;20397;-64
2022/04/11 01:17:24;;;;;;;;;;;;;;;;;;5069600;28;20018;-65
2022/04/11 01:19:50;;;;;;;;;;;;;;;;;;5069134;28;19972;-64
2022/04/11 01:22:17;;;;;;;;;;;;;;;;;;5068821;28;19970;-67
2022/04/11 01:24:43;;;;;;;;;;;;;;;;;;5069335;28;19987;-66
2022/04/11 01:27:09;;;;;;;;;;;;;;;;;;5069226;28;19976;-66
2022/04/11 01:29:35;;;;;;;;;;;;;;;;;;5069521;28;19929;-67
2022/04/11 01:32:01;;;;;;;;;;;;;;;;;;5068704;28;19945;-66
2022/04/11 01:34:27;;;;;;;;;;;;;;;;;;5069784;28;20191;-67
2022/04/11 01:36:53;;;;;;;;;;;;;;;;;;5068171;28;19955;-66
2022/04/11 01:39:20;;;;;;;;;;;;;;;;;;5069372;28;19980;-68
2022/04/11 01:41:46;;;;;;;;;;;;;;;;;;5068929;28;19968;-64
2022/04/11 01:44:12;;;;;;;;;;;;;;;;;;5069551;28;20330;-67
2022/04/11 01:46:38;;;;;;;;;;;;;;;;;;5068786;28;19966;-65
2022/04/11 01:49:04;;;;;;;;;;;;;;;;;;5068432;28;20444;-65
2022/04/11 01:51:30;;;;;;;;;;;;;;;;;;5068902;28;20455;-65
2022/04/11 01:53:57;;;;;;;;;;;;;;;;;;5068819;28;20483;-65
2022/04/11 01:56:23;;;;;;;;;;;;;;;;;;5068364;28;19976;-65
2022/04/11 01:58:49;;;;;;;;;;;;;;;;;;5069196;28;20055;-65
2022/04/11 02:01:15;;;;;;;;;;;;;;;;;;5068366;28;19972;-65
2022/04/11 02:03:42;;;;;;;;;;;;;;;;;;5068345;28;20448;-65
2022/04/11 02:06:08;;;;;;;;;;;;;;;;;;5067999;28;19989;-65
2022/04/11 02:11:03;;;;;;;;;;;;;;;;;;5083285;28;20428;-64
2022/04/11 02:13:30;;;;;;;;;;;;;;;;;;5083649;28;20015;-63
2022/04/11 02:15:56;;;;;;;;;;;;;;;;;;5083293;28;19987;-62
2022/04/11 02:18:22;;;;;;;;;;;;;;;;;;5086321;28;19969;-63
2022/04/11 02:20:48;;;;;;;;;;;;;;;;;;5079636;28;19968;-62
2022/04/11 02:23:14;;;;;;;;;;;;;;;;;;5079023;28;20355;-62
2022/04/11 02:25:40;;;;;;;;;;;;;;;;;;5082882;28;20000;-62
2022/04/11 02:28:07;;;;;;;;;;;;;;;;;;5076871;28;19969;-61
2022/04/11 02:30:33;;;;;;;;;;;;;;;;;;5081761;28;20460;-61
2022/04/11 02:32:59;;;;;;;;;;;;;;;;;;5083614;28;20545;-62
2022/04/11 02:35:25;;;;;;;;;;;;;;;;;;5083534;28;19988;-63
2022/04/11 02:37:52;;;;;;;;;;;;;;;;;;5074584;28;19965;-62
2022/04/11 02:40:18;;;;;;;;;;;;;;;;;;5079603;28;19959;-62
2022/04/11 02:42:44;;;;;;;;;;;;;;;;;;5081129;28;19964;-62
2022/04/11 02:45:10;;;;;;;;;;;;;;;;;;5080762;28;19983;-62
2022/04/11 02:47:36;;;;;;;;;;;;;;;;;;5079656;28;19971;-62
2022/04/11 02:50:02;;;;;;;;;;;;;;;;;;5074045;28;19971;-61
2022/04/11 02:52:29;;;;;;;;;;;;;;;;;;5081271;28;19986;-61
2022/04/11 02:54:55;;;;;;;;;;;;;;;;;;5079983;28;20365;-60
2022/04/11 02:57:22;;;;;;;;;;;;;;;;;;5080222;28;20052;-64
2022/04/11 02:59:48;;;;;;;;;;;;;;;;;;5083688;28;20554;-60
2022/04/11 03:02:15;;;;;;;;;;;;;;;;;;5079578;28;20370;-62
2022/04/11 03:04:41;;;;;;;;;;;;;;;;;;5086655;28;20010;-63
2022/04/11 03:07:07;;;;;;;;;;;;;;;;;;5084758;28;19951;-62
2022/04/11 03:09:33;;;;;;;;;;;;;;;;;;5081064;28;19980;-62
2022/04/11 03:11:59;;;;;;;;;;;;;;;;;;5080737;28;20412;-62
2022/04/11 03:14:25;;;;;;;;;;;;;;;;;;5081157;28;19975;-62
2022/04/11 03:16:52;;;;;;;;;;;;;;;;;;5078515;28;19959;-62
2022/04/11 03:19:18;;;;;;;;;;;;;;;;;;5088398;28;19975;-62
2022/04/11 03:21:44;;;;;;;;;;;;;;;;;;5080123;28;19980;-63
2022/04/11 03:24:10;;;;;;;;;;;;;;;;;;5075529;28;20424;-64
2022/04/11 03:26:36;;;;;;;;;;;;;;;;;;5092095;28;19974;-62
2022/04/11 03:29:02;;;;;;;;;;;;;;;;;;5084233;28;19928;-71
2022/04/11 03:31:29;;;;;;;;;;;;;;;;;;5085567;28;20424;-71
2022/04/11 03:33:55;;;;;;;;;;;;;;;;;;5080814;28;19971;-72
2022/04/11 03:36:21;;;;;;;;;;;;;;;;;;5082624;28;20490;-71
2022/04/11 03:38:48;;;;;;;;;;;;;;;;;;5083288;28;19975;-67
2022/04/11 03:41:14;;;;;;;;;;;;;;;;;;5082650;28;19976;-67
2022/04/11 03:43:40;;;;;;;;;;;;;;;;;;5085033;28;19994;-67
2022/04/11 03:46:06;;;;;;;;;;;;;;;;;;5080434;28;19989;-67
2022/04/11 03:48:32;;;;;;;;;;;;;;;;;;5084581;28;19966;-67
2022/04/11 03:50:58;;;;;;;;;;;;;;;;;;5081280;28;19988;-67
2022/04/11 03:53:24;;;;;;;;;;;;;;;;;;5088167;28;19979;-67
2022/04/11 03:55:51;;;;;;;;;;;;;;;;;;5080882;28;19981;-69
2022/04/11 03:58:17;;;;;;;;;;;;;;;;;;5083132;28;19978;-66
2022/04/11 04:00:43;;;;;;;;;;;;;;;;;;5085704;28;19972;-64
2022/04/11 04:03:09;;;;;;;;;;;;;;;;;;5078859;28;20365;-65
2022/04/11 04:05:35;;;;;;;;;;;;;;;;;;5089283;28;19968;-66
2022/04/11 04:08:02;;;;;;;;;;;;;;;;;;5084592;28;20125;-64
2022/04/11 04:10:28;;;;;;;;;;;;;;;;;;5075742;28;19994;-64
2022/04/11 04:12:54;;;;;;;;;;;;;;;;;;5083560;28;20204;-63
2022/04/11 04:15:20;;;;;;;;;;;;;;;;;;5081159;28;19986;-62
2022/04/11 04:17:46;;;;;;;;;;;;;;;;;;5087756;28;19995;-67
2022/04/11 04:20:12;;;;;;;;;;;;;;;;;;5086521;28;19942;-66
2022/04/11 04:22:39;;;;;;;;;;;;;;;;;;5080892;28;19925;-68
2022/04/11 04:25:05;;;;;;;;;;;;;;;;;;5080563;28;19964;-67
2022/04/11 04:27:31;;;;;;;;;;;;;;;;;;5075071;28;19982;-66
2022/04/11 04:29:57;;;;;;;;;;;;;;;;;;5082208;28;19988;-66
2022/04/11 04:32:23;;;;;;;;;;;;;;;;;;5090232;28;19968;-65
2022/04/11 04:34:49;;;;;;;;;;;;;;;;;;5087562;28;19984;-66
2022/04/11 04:37:16;;;;;;;;;;;;;;;;;;5082946;28;20336;-66
2022/04/11 04:39:42;;;;;;;;;;;;;;;;;;5088294;28;20350;-67
2022/04/11 04:42:08;;;;;;;;;;;;;;;;;;5083299;28;19977;-67
2022/04/11 04:44:34;;;;;;;;;;;;;;;;;;5085383;28;19999;-64
2022/04/11 04:47:00;;;;;;;;;;;;;;;;;;5083300;28;19973;-71
2022/04/11 04:49:26;;;;;;;;;;;;;;;;;;5084268;28;20341;-74
2022/04/11 04:51:52;;;;;;;;;;;;;;;;;;5076663;28;19988;-74
2022/04/11 04:54:19;;;;;;;;;;;;;;;;;;5084577;28;19996;-73
2022/04/11 04:56:49;;;;;;;;;;;;;;;;;;5085745;28;19967;-75
2022/04/11 04:59:15;;;;;;;;;;;;;;;;;;5081641;28;19965;-74
2022/04/11 05:01:41;;;;;;;;;;;;;;;;;;4374126;28;10020804;-74
2022/04/11 05:04:07;;;;;;;;;;;;;;;;;;5079739;28;19965;-74
2022/04/11 05:06:34;;;;;;;;;;;;;;;;;;5077854;28;19969;-73
2022/04/11 05:09:00;;;;;;;;;;;;;;;;;;5081450;28;20016;-75
2022/04/11 05:11:26;;;;;;;;;;;;;;;;;;5074422;28;20710;-74
2022/04/11 05:13:52;;;;;;;;;;;;;;;;;;5075962;28;20211;-74
2022/04/11 05:16:19;;;;;;;;;;;;;;;;;;5081173;28;19981;-75
2022/04/11 05:18:45;;;;;;;;;;;;;;;;;;5083519;28;19980;-73
2022/04/11 05:21:12;;;;;;;;;;;;;;;;;;5082364;28;20442;-75
2022/04/11 05:23:38;;;;;;;;;;;;;;;;;;5079244;28;19999;-76
2022/04/11 05:26:05;;;;;;;;;;;;;;;;;;5082659;28;19989;-75
2022/04/11 05:28:31;;;;;;;;;;;;;;;;;;5075445;28;20079;-74
2022/04/11 05:30:58;;;;;;;;;;;;;;;;;;5074565;28;20091;-74
2022/04/11 05:33:24;;;;;;;;;;;;;;;;;;5082069;28;20023;-74
2022/04/11 05:35:50;;;;;;;;;;;;;;;;;;5084216;28;19986;-75
2022/04/11 05:38:16;;;;;;;;;;;;;;;;;;5078734;28;20015;-73
2022/04/11 05:40:43;;;;;;;;;;;;;;;;;;5085226;28;20183;-74
2022/04/11 05:43:09;;;;;;;;;;;;;;;;;;5080586;28;19979;-73
2022/04/11 05:45:36;;;;;;;;;;;;;;;;;;5084737;28;19983;-73
2022/04/11 05:48:02;;;;;;;;;;;;;;;;;;5081451;28;20413;-73
2022/04/11 05:50:28;;;;;;;;;;;;;;;;;;5082692;28;19988;-72
2022/04/11 05:52:54;;;;;;;;;;;;;;;;;;5080524;28;19968;-72
2022/04/11 05:55:22;;;;;;;;;;;;;;;;;;5078346;28;19993;-74
2022/04/11 05:57:49;;;;;;;;;;;;;;;;;;5070222;28;19999;-74
2022/04/11 06:00:16;;;;;;;;;;;;;;;;;;5077559;28;19977;-74
2022/04/11 06:02:44;;;;;;;;;;;;;;;;;;5077781;28;20381;-73
2022/04/11 06:05:10;;;;;;;;;;;;;;;;;;5089993;28;19982;-72
2022/04/11 06:07:36;;;;;;;;;;;;;;;;;;5090040;28;19960;-76
2022/04/11 06:10:03;;;;;;;;;;;;;;;;;;5078075;28;19966;-73
2022/04/11 06:12:29;;;;;;;;;;;;;;;;;;5071778;28;19973;-72
2022/04/11 06:14:55;;;;;;;;;;;;;;;;;;5075513;28;19983;-72
2022/04/11 06:17:23;;;;;;;;;;;;;;;;;;5079617;28;19988;-72
2022/04/11 06:19:49;;;;;;;;;;;;;;;;;;5086398;28;19998;-74
2022/04/11 06:22:15;;;;;;;;;;;;;;;;;;5073643;28;20352;-73
2022/04/11 06:24:41;;;;;;;;;;;;;;;;;;5077266;28;19981;-74
2022/04/11 06:27:08;;;;;;;;;;;;;;;;;;5095552;28;19956;-73
2022/04/11 06:29:34;;;;;;;;;;;;;;;;;;5087854;28;19953;-74
2022/04/11 06:32:02;;;;;;;;;;;;;;;;;;5083469;28;20001;-73
2022/04/11 06:34:29;;;;;;;;;;;;;;;;;;5094912;28;19964;-73
2022/04/11 06:36:55;;;;;;;;;;;;;;;;;;5085374;28;19953;-72
2022/04/11 06:39:21;;;;;;;;;;;;;;;;;;5090800;28;20091;-72
2022/04/11 06:41:47;;;;;;;;;;;;;;;;;;5084128;28;19977;-75
2022/04/11 06:44:13;;;;;;;;;;;;;;;;;;5082195;28;20033;-74
2022/04/11 06:46:40;;;;;;;;;;;;;;;;;;5076677;28;19957;-73
2022/04/11 06:49:06;;;;;;;;;;;;;;;;;;5070218;28;19988;-74
2022/04/11 06:51:32;;;;;;;;;;;;;;;;;;5079692;28;19987;-74
2022/04/11 06:53:58;;;;;;;;;;;;;;;;;;4728013;28;10000457;-73
2022/04/11 06:56:25;;;;;;;;;;;;;;;;;;5080563;28;20412;-74
2022/04/11 06:58:51;;;;;;;;;;;;;;;;;;5070892;28;19982;-72
2022/04/11 07:01:17;;;;;;;;;;;;;;;;;;5075390;28;20388;-75
2022/04/11 07:03:43;;;;;;;;;;;;;;;;;;5082507;28;20226;-73
2022/04/11 07:06:10;;;;;;;;;;;;;;;;;;5081378;28;19990;-73
2022/04/11 07:08:36;;;;;;;;;;;;;;;;;;5070511;28;19945;-73
2022/04/11 07:11:02;;;;;;;;;;;;;;;;;;5078912;28;19964;-74
2022/04/11 07:13:28;;;;;;;;;;;;;;;;;;5075722;28;19928;-73
2022/04/11 07:15:54;;;;;;;;;;;;;;;;;;5074059;28;19960;-75
2022/04/11 07:18:21;;;;;;;;;;;;;;;;;;5076615;28;20407;-75
2022/04/11 07:20:47;;;;;;;;;;;;;;;;;;5077930;28;20076;-74
2022/04/11 07:23:13;;;;;;;;;;;;;;;;;;5076485;28;19940;-75
2022/04/11 07:25:39;;;;;;;;;;;;;;;;;;5082835;28;19924;-74
2022/04/11 07:28:06;;;;;;;;;;;;;;;;;;5084785;28;19944;-75
2022/04/11 07:30:32;;;;;;;;;;;;;;;;;;5078454;28;20328;-73
2022/04/11 07:32:59;;;;;;;;;;;;;;;;;;5076187;28;19957;-75
2022/04/11 07:35:25;;;;;;;;;;;;;;;;;;5075950;28;19961;-74
2022/04/11 07:37:51;;;;;;;;;;;;;;;;;;5086271;28;20074;-75
2022/04/11 07:40:17;;;;;;;;;;;;;;;;;;5078606;28;19959;-74
2022/04/11 07:42:43;;;;;;;;;;;;;;;;;;5073062;28;19928;-75
2022/04/11 07:45:09;;;;;;;;;;;;;;;;;;5083345;28;19967;-74
2022/04/11 07:47:36;;;;;;;;;;;;;;;;;;5084614;28;19927;-73
2022/04/11 07:50:02;;;;;;;;;;;;;;;;;;5086945;28;19928;-74
2022/04/11 07:52:28;;;;;;;;;;;;;;;;;;5082840;28;19928;-74
2022/04/11 07:54:54;;;;;;;;;;;;;;;;;;5083951;28;20340;-74
2022/04/11 07:57:21;;;;;;;;;;;;;;;;;;5082614;28;19932;-72
2022/04/11 07:59:47;;;;;;;;;;;;;;;;;;5085341;28;19924;-74
2022/04/11 08:02:13;;;;;;;;;;;;;;;;;;5081349;28;19931;-72
2022/04/11 08:04:39;;;;;;;;;;;;;;;;;;5075750;28;20309;-73
2022/04/11 08:07:06;;;;;;;;;;;;;;;;;;5098351;28;19992;-74
2022/04/11 08:12:06;;;;;;;;;;;;;;;;;;5047138;28;19925;-73
2022/04/11 08:14:32;;;;;;;;;;;;;;;;;;5052082;28;19969;-73
2022/04/11 08:17:02;;;;;;;;;;;;;;;;;;5047661;28;19937;-73
2022/04/11 08:19:29;;;;;;;;;;;;;;;;;;5046308;28;20427;-72
2022/04/11 08:21:55;;;;;;;;;;;;;;;;;;5037099;28;20458;-73
2022/04/11 08:24:21;;;;;;;;;;;;;;;;;;5039035;28;19929;-72
2022/04/11 08:26:48;;;;;;;;;;;;;;;;;;5029135;28;19941;-71
2022/04/11 08:29:14;;;;;;;;;;;;;;;;;;5038619;28;19929;-71
2022/04/11 08:31:40;;;;;;;;;;;;;;;;;;5035667;28;20034;-71
2022/04/11 08:34:06;;;;;;;;;;;;;;;;;;5043474;28;20243;-73
2022/04/11 08:36:32;;;;;;;;;;;;;;;;;;5031518;28;20297;-73
2022/04/11 08:38:59;;;;;;;;;;;;;;;;;;5041267;28;20015;-72
2022/04/11 08:41:25;;;;;;;;;;;;;;;;;;5041440;28;20383;-70
2022/04/11 08:43:54;;;;;;;;;;;;;;;;;;5032019;28;19933;-71
2022/04/11 08:46:20;;;;;;;;;;;;;;;;;;5037110;28;19957;-69
2022/04/11 08:48:46;;;;;;;;;;;;;;;;;;5039592;28;20382;-70
2022/04/11 08:51:12;;;;;;;;;;;;;;;;;;5037073;28;20310;-70
2022/04/11 08:53:39;;;;;;;;;;;;;;;;;;5042684;28;19953;-71
2022/04/11 08:56:05;;;;;;;;;;;;;;;;;;5038420;28;19979;-74
2022/04/11 08:58:31;;;;;;;;;;;;;;;;;;5047431;28;19954;-71
2022/04/11 09:00:57;;;;;;;;;;;;;;;;;;5041062;28;19945;-71
2022/04/11 09:03:23;;;;;;;;;;;;;;;;;;5041401;28;19945;-71
2022/04/11 09:05:50;;;;;;;;;;;;;;;;;;5028229;28;19966;-71
2022/04/11 09:08:16;;;;;;;;;;;;;;;;;;5041194;28;19947;-71
2022/04/11 09:10:42;;;;;;;;;;;;;;;;;;5034051;28;19942;-71
2022/04/11 09:13:08;;;;;;;;;;;;;;;;;;5039195;28;19938;-71
2022/04/11 09:15:34;;;;;;;;;;;;;;;;;;5039299;28;19999;-70
2022/04/11 09:18:00;;;;;;;;;;;;;;;;;;5044214;28;20142;-70
2022/04/11 09:20:26;;;;;;;;;;;;;;;;;;5038839;28;19973;-71
2022/04/11 09:22:53;;;;;;;;;;;;;;;;;;5032351;28;19990;-71
2022/04/11 09:25:19;;;;;;;;;;;;;;;;;;5038557;28;20003;-71
2022/04/11 09:27:45;;;;;;;;;;;;;;;;;;5041711;28;19944;-70
2022/04/11 09:30:11;;;;;;;;;;;;;;;;;;5030864;28;19972;-73
2022/04/11 09:32:37;;;;;;;;;;;;;;;;;;5042399;28;20016;-71
2022/04/11 09:35:03;;;;;;;;;;;;;;;;;;5040242;28;19964;-70
2022/04/11 09:37:29;;;;;;;;;;;;;;;;;;5042298;28;19950;-71
2022/04/11 09:39:56;;;;;;;;;;;;;;;;;;5035973;28;19974;-71
2022/04/11 09:42:22;;;;;;;;;;;;;;;;;;5040346;28;19996;-71
2022/04/11 09:44:49;;;;;;;;;;;;;;;;;;5037109;28;19971;-71
2022/04/11 09:47:15;;;;;;;;;;;;;;;;;;5035971;28;19953;-71
2022/04/11 09:49:41;;;;;;;;;;;;;;;;;;5036034;28;20340;-72
2022/04/11 09:52:08;;;;;;;;;;;;;;;;;;5035545;28;19989;-70
2022/04/11 09:54:34;;;;;;;;;;;;;;;;;;5038790;28;19975;-70
2022/04/11 09:57:00;;;;;;;;;;;;;;;;;;5043379;28;19951;-71
2022/04/11 09:59:26;;;;;;;;;;;;;;;;;;5045488;28;19953;-71
2022/04/11 10:01:52;;;;;;;;;;;;;;;;;;5040520;28;19938;-71
2022/04/11 10:04:19;;;;;;;;;;;;;;;;;;5043317;28;19967;-71
2022/04/11 10:06:45;;;;;;;;;;;;;;;;;;5041024;28;19961;-71
2022/04/11 10:09:11;;;;;;;;;;;;;;;;;;5037266;28;19947;-71
2022/04/11 10:11:37;;;;;;;;;;;;;;;;;;5037913;28;19970;-71
2022/04/11 10:14:03;;;;;;;;;;;;;;;;;;5037299;28;19953;-71
2022/04/11 10:16:29;;;;;;;;;;;;;;;;;;5036421;28;19968;-71
2022/04/11 10:18:55;;;;;;;;;;;;;;;;;;5041013;28;19966;-69
2022/04/11 10:21:22;;;;;;;;;;;;;;;;;;5041036;28;20225;-71
2022/04/11 10:23:48;;;;;;;;;;;;;;;;;;5036728;28;19977;-70
2022/04/11 10:26:14;;;;;;;;;;;;;;;;;;5045025;28;19994;-70
2022/04/11 10:28:40;;;;;;;;;;;;;;;;;;5044998;28;19975;-69
2022/04/11 10:31:07;;;;;;;;;;;;;;;;;;5035614;28;19978;-69
2022/04/11 10:33:34;;;;;;;;;;;;;;;;;;5030697;28;19996;-71
2022/04/11 10:36:00;;;;;;;;;;;;;;;;;;5031505;28;20004;-72
2022/04/11 10:38:26;;;;;;;;;;;;;;;;;;5038064;28;19974;-71
2022/04/11 10:40:52;;;;;;;;;;;;;;;;;;5042181;28;19971;-70
2022/04/11 10:43:18;;;;;;;;;;;;;;;;;;5045447;28;20000;-69
2022/04/11 10:45:45;;;;;;;;;;;;;;;;;;5044611;28;20007;-72
2022/04/11 10:48:11;;;;;;;;;;;;;;;;;;5040022;28;19963;-71
2022/04/11 10:50:37;;;;;;;;;;;;;;;;;;5041833;28;19958;-70
2022/04/11 10:53:03;;;;;;;;;;;;;;;;;;5038471;28;19981;-70
2022/04/11 10:55:30;;;;;;;;;;;;;;;;;;5043629;28;19972;-70
2022/04/11 10:57:57;;;;;;;;;;;;;;;;;;5044652;28;20085;-71
2022/04/11 11:00:23;;;;;;;;;;;;;;;;;;5034265;28;20094;-70
2022/04/11 11:02:50;;;;;;;;;;;;;;;;;;5044832;28;19977;-70
2022/04/11 11:05:16;;;;;;;;;;;;;;;;;;5029354;28;19987;-70
2022/04/11 11:07:44;;;;;;;;;;;;;;;;;;4694588;28;9999780;-69
2022/04/11 11:10:10;;;;;;;;;;;;;;;;;;5035429;28;19964;-69
2022/04/11 11:12:37;;;;;;;;;;;;;;;;;;5039190;28;20131;-72
2022/04/11 11:15:03;;;;;;;;;;;;;;;;;;5038034;28;20493;-69
2022/04/11 11:17:29;;;;;;;;;;;;;;;;;;5041932;28;20423;-69
2022/04/11 11:19:55;;;;;;;;;;;;;;;;;;5033747;28;20294;-71
2022/04/11 11:22:21;;;;;;;;;;;;;;;;;;5041320;28;20434;-71
2022/04/11 11:24:48;;;;;;;;;;;;;;;;;;5044344;28;20470;-69
2022/04/11 11:27:14;;;;;;;;;;;;;;;;;;5046034;28;20443;-69
2022/04/11 11:29:40;;;;;;;;;;;;;;;;;;5037522;28;19989;-70
2022/04/11 11:32:06;;;;;;;;;;;;;;;;;;5044377;28;20302;-70
2022/04/11 11:34:32;;;;;;;;;;;;;;;;;;5043969;28;20823;-70
2022/04/11 11:36:58;;;;;;;;;;;;;;;;;;5048838;28;19983;-70
2022/04/11 11:39:25;;;;;;;;;;;;;;;;;;5040759;28;19958;-70
2022/04/11 11:41:51;;;;;;;;;;;;;;;;;;5037233;28;19948;-70
2022/04/11 11:44:17;;;;;;;;;;;;;;;;;;5041199;28;20422;-69
2022/04/11 11:46:43;;;;;;;;;;;;;;;;;;5048853;28;19969;-70
2022/04/11 11:49:09;;;;;;;;;;;;;;;;;;5034625;28;19963;-70
2022/04/11 11:51:35;;;;;;;;;;;;;;;;;;5050800;28;19963;-70
2022/04/11 11:54:02;;;;;;;;;;;;;;;;;;5048028;28;19949;-72
2022/04/11 11:56:28;;;;;;;;;;;;;;;;;;5047946;28;19957;-71
2022/04/11 11:58:54;;;;;;;;;;;;;;;;;;5042736;28;19936;-70
2022/04/11 12:01:20;;;;;;;;;;;;;;;;;;5034688;28;20401;-70
2022/04/11 12:06:31;;;;;;;;;;;;;;;;;;5047172;28;19995;-70
2022/04/11 12:08:57;;;;;;;;;;;;;;;;;;5039949;28;19929;-69
2022/04/11 12:11:24;;;;;;;;;;;;;;;;;;5050619;28;19936;-70
2022/04/11 12:13:50;;;;;;;;;;;;;;;;;;5049091;28;19928;-70
2022/04/11 12:16:17;;;;;;;;;;;;;;;;;;5041249;28;19932;-70
2022/04/11 12:18:44;;;;;;;;;;;;;;;;;;5041358;28;19925;-70
2022/04/11 12:21:10;;;;;;;;;;;;;;;;;;5036541;28;19935;-70
2022/04/11 12:23:36;;;;;;;;;;;;;;;;;;5043756;28;19925;-69
2022/04/11 12:26:02;;;;;;;;;;;;;;;;;;5040206;28;19926;-70
2022/04/11 12:28:29;;;;;;;;;;;;;;;;;;5048804;28;19928;-69
2022/04/11 12:30:55;;;;;;;;;;;;;;;;;;5042332;28;19946;-71
2022/04/11 12:33:21;;;;;;;;;;;;;;;;;;5034562;28;19933;-70
2022/04/11 12:35:47;;;;;;;;;;;;;;;;;;5044595;28;19929;-70
2022/04/11 12:38:13;;;;;;;;;;;;;;;;;;5046154;28;19945;-70
2022/04/11 12:40:39;;;;;;;;;;;;;;;;;;5040824;28;19929;-70
2022/04/11 12:43:06;;;;;;;;;;;;;;;;;;5048610;28;20037;-70
2022/04/11 12:45:32;;;;;;;;;;;;;;;;;;5048358;28;19968;-70
2022/04/11 12:47:58;;;;;;;;;;;;;;;;;;5036589;28;19964;-70
2022/04/11 12:50:24;;;;;;;;;;;;;;;;;;5043454;28;19952;-69
2022/04/11 12:52:50;;;;;;;;;;;;;;;;;;5044415;28;20378;-70
2022/04/11 12:55:16;;;;;;;;;;;;;;;;;;5042190;28;19966;-69
2022/04/11 12:57:43;;;;;;;;;;;;;;;;;;5046811;28;20368;-69
2022/04/11 13:00:09;;;;;;;;;;;;;;;;;;5047476;28;19939;-69
2022/04/11 13:02:35;;;;;;;;;;;;;;;;;;5045066;28;19937;-69
2022/04/11 13:05:02;;;;;;;;;;;;;;;;;;5055866;28;20352;-69
2022/04/11 13:07:28;;;;;;;;;;;;;;;;;;5053932;28;19983;-69
2022/04/11 13:09:54;;;;;;;;;;;;;;;;;;5042052;28;19945;-70
2022/04/11 13:12:20;;;;;;;;;;;;;;;;;;5049715;28;19968;-70
2022/04/11 13:14:46;;;;;;;;;;;;;;;;;;5038039;28;19961;-70
2022/04/11 13:19:56;;;;;;;;;;;;;;;;;;5042445;28;19974;-69
2022/04/11 13:22:22;;;;;;;;;;;;;;;;;;5047084;28;19932;-69
2022/04/11 13:24:50;;;;;;;;;;;;;;;;;;5047912;28;19924;-69
2022/04/11 13:27:16;;;;;;;;;;;;;;;;;;5045765;28;19998;-73
2022/04/11 13:29:42;;;;;;;;;;;;;;;;;;5046773;28;19952;-69
2022/04/11 13:32:08;;;;;;;;;;;;;;;;;;5042488;28;19940;-70
2022/04/11 13:34:35;;;;;;;;;;;;;;;;;;5043442;28;19928;-70
2022/04/11 13:37:01;;;;;;;;;;;;;;;;;;5044334;28;20113;-71
2022/04/11 13:39:27;;;;;;;;;;;;;;;;;;5047683;28;19933;-69
2022/04/11 13:41:53;;;;;;;;;;;;;;;;;;5044632;28;19974;-70
2022/04/11 13:44:19;;;;;;;;;;;;;;;;;;5044606;28;20024;-71
2022/04/11 13:46:46;;;;;;;;;;;;;;;;;;5045894;28;19932;-69
2022/04/11 13:49:12;;;;;;;;;;;;;;;;;;5037057;28;19932;-71
2022/04/11 13:51:38;;;;;;;;;;;;;;;;;;5044665;28;19935;-70
2022/04/11 13:54:04;;;;;;;;;;;;;;;;;;5041918;28;20027;-69
2022/04/11 13:56:31;;;;;;;;;;;;;;;;;;5050081;28;20185;-70
2022/04/11 13:58:57;;;;;;;;;;;;;;;;;;5046028;28;19925;-68
2022/04/11 14:01:24;;;;;;;;;;;;;;;;;;5039491;28;19931;-71
2022/04/11 14:03:50;;;;;;;;;;;;;;;;;;5042525;28;19925;-70
2022/04/11 14:06:17;;;;;;;;;;;;;;;;;;4691500;28;10000020;-72
2022/04/11 14:08:43;;;;;;;;;;;;;;;;;;5042535;28;20043;-70
2022/04/11 14:13:39;;;;;;;;;;;;;;;;;;5103066;28;19928;-71
2022/04/11 14:16:05;;;;;;;;;;;;;;;;;;5106952;28;20384;-72
2022/04/11 14:18:31;;;;;;;;;;;;;;;;;;5106566;28;19954;-72
2022/04/11 14:20:57;;;;;;;;;;;;;;;;;;5108305;28;19938;-73
2022/04/11 14:23:27;;;;;;;;;;;;;;;;;;5107637;28;20287;-72
2022/04/11 14:25:53;;;;;;;;;;;;;;;;;;5107562;28;19928;-70
2022/04/11 14:28:19;;;;;;;;;;;;;;;;;;5108209;28;20329;-70
2022/04/11 14:30:45;;;;;;;;;;;;;;;;;;5107693;28;19923;-70
2022/04/11 14:33:11;;;;;;;;;;;;;;;;;;5106933;28;19931;-70
2022/04/11 14:35:39;;;;;;;;;;;;;;;;;;5107675;28;19953;-70
2022/04/11 14:38:05;;;;;;;;;;;;;;;;;;5107770;28;19927;-68
2022/04/11 14:40:31;;;;;;;;;;;;;;;;;;5107109;28;19928;-68
2022/04/11 14:42:57;;;;;;;;;;;;;;;;;;5107660;28;19928;-68
2022/04/11 14:45:23;;;;;;;;;;;;;;;;;;5107208;28;19939;-68
2022/04/11 14:47:50;;;;;;;;;;;;;;;;;;5107143;28;20427;-68
2022/04/11 14:50:16;;;;;;;;;;;;;;;;;;5108074;28;20020;-68
2022/04/11 14:52:42;;;;;;;;;;;;;;;;;;5107025;28;19939;-68
2022/04/11 14:55:08;;;;;;;;;;;;;;;;;;5108850;28;19935;-68
2022/04/11 14:57:34;;;;;;;;;;;;;;;;;;5111316;28;19924;-68
2022/04/11 15:00:01;;;;;;;;;;;;;;;;;;5111303;28;20473;-69
2022/04/11 15:02:27;;;;;;;;;;;;;;;;;;5110616;28;19943;-68
2022/04/11 15:04:54;;;;;;;;;;;;;;;;;;5107556;28;19924;-68
2022/04/11 15:07:20;;;;;;;;;;;;;;;;;;5110728;28;20048;-68
2022/04/11 15:09:46;;;;;;;;;;;;;;;;;;5111527;28;19944;-68
2022/04/11 15:12:12;;;;;;;;;;;;;;;;;;5111125;28;19943;-68
2022/04/11 15:14:38;;;;;;;;;;;;;;;;;;5111426;28;20394;-68
2022/04/11 15:17:04;;;;;;;;;;;;;;;;;;5112169;27;20004;-69
2022/04/11 15:19:30;;;;;;;;;;;;;;;;;;5111087;28;20045;-68
2022/04/11 15:21:57;;;;;;;;;;;;;;;;;;5111359;28;19962;-68
2022/04/11 15:24:23;;;;;;;;;;;;;;;;;;5097087;28;20305;-69
2022/04/11 15:26:49;;;;;;;;;;;;;;;;;;5107859;28;20260;-68
2022/04/11 15:29:15;;;;;;;;;;;;;;;;;;5109852;28;20287;-68
2022/04/11 15:31:41;;;;;;;;;;;;;;;;;;5104982;28;19966;-68
2022/04/11 15:34:09;;;;;;;;;;;;;;;;;;5109871;28;20429;-68
2022/04/11 15:36:35;;;;;;;;;;;;;;;;;;5109480;28;19964;-68
2022/04/11 15:39:01;;;;;;;;;;;;;;;;;;5108514;28;19963;-68
2022/04/11 15:41:29;;;;;;;;;;;;;;;;;;5108217;28;19959;-68
2022/04/11 15:43:55;;;;;;;;;;;;;;;;;;5107016;28;20036;-69
2022/04/11 15:46:21;;;;;;;;;;;;;;;;;;5108907;28;19982;-68
2022/04/11 15:48:47;;;;;;;;;;;;;;;;;;5107274;28;19953;-68
2022/04/11 15:51:13;;;;;;;;;;;;;;;;;;5108503;28;19960;-68
2022/04/11 15:53:40;;;;;;;;;;;;;;;;;;5107302;28;19980;-68
2022/04/11 15:56:06;;;;;;;;;;;;;;;;;;5105704;28;20480;-68
2022/04/11 15:58:33;;;;;;;;;;;;;;;;;;5103613;28;20311;-69
2022/04/11 16:00:59;;;;;;;;;;;;;;;;;;5107844;28;19950;-68
2022/04/11 16:03:25;;;;;;;;;;;;;;;;;;5097635;28;20043;-68
2022/04/11 16:05:56;;;;;;;;;;;;;;;;;;5103016;28;19978;-68
2022/04/11 16:08:22;;;;;;;;;;;;;;;;;;5095186;28;19955;-68
2022/04/11 16:10:48;;;;;;;;;;;;;;;;;;5108163;28;20361;-68
2022/04/11 16:13:15;;;;;;;;;;;;;;;;;;5108160;28;20644;-67
2022/04/11 16:15:41;;;;;;;;;;;;;;;;;;5102768;28;20313;-67
2022/04/11 16:18:07;;;;;;;;;;;;;;;;;;5103599;28;20003;-67
2022/04/11 16:20:33;;;;;;;;;;;;;;;;;;5090236;28;19968;-67
2022/04/11 16:23:00;;;;;;;;;;;;;;;;;;5101936;28;19969;-67
2022/04/11 16:25:26;;;;;;;;;;;;;;;;;;5107573;28;20313;-67
2022/04/11 16:27:52;;;;;;;;;;;;;;;;;;5105923;28;19963;-67
2022/04/11 16:30:18;;;;;;;;;;;;;;;;;;5105806;28;19953;-67
2022/04/11 16:32:45;;;;;;;;;;;;;;;;;;5103593;28;19950;-67
2022/04/11 16:35:11;;;;;;;;;;;;;;;;;;5107527;28;20487;-67
2022/04/11 16:37:37;;;;;;;;;;;;;;;;;;5107560;28;19963;-67
2022/04/11 16:40:03;;;;;;;;;;;;;;;;;;5107681;28;20411;-67
2022/04/11 16:42:29;;;;;;;;;;;;;;;;;;5108471;28;19971;-69
2022/04/11 16:44:56;;;;;;;;;;;;;;;;;;5107845;28;19989;-68
2022/04/11 16:47:22;;;;;;;;;;;;;;;;;;5107368;28;20449;-68
2022/04/11 16:49:49;;;;;;;;;;;;;;;;;;5107125;28;19975;-68